createdAt,value
2019-03-15T00:01:49.716Z,8.20
2019-03-15T00:04:18.546Z,8.30
2019-03-15T00:06:47.330Z,8.30
2019-03-15T00:09:16.100Z,8.30
2019-03-15T00:11:44.903Z,8.30
2019-03-15T00:14:13.778Z,8.30
2019-03-15T00:16:42.554Z,8.40
2019-03-15T00:19:11.338Z,8.50
2019-03-15T00:21:40.119Z,8.50
2019-03-15T00:24:09.185Z,8.50
2019-03-15T00:26:38.030Z,8.60
2019-03-15T00:29:06.821Z,8.60
2019-03-15T00:31:35.596Z,8.70
2019-03-15T00:34:04.394Z,8.70
2019-03-15T00:36:33.253Z,8.60
2019-03-15T00:39:02.034Z,8.70
2019-03-15T00:41:30.853Z,8.60
2019-03-15T00:43:59.701Z,8.60
2019-03-15T00:46:28.477Z,8.60
2019-03-15T00:48:57.310Z,8.60
2019-03-15T00:51:26.111Z,8.50
2019-03-15T00:53:55.128Z,8.40
2019-03-15T00:56:24.108Z,8.30
2019-03-15T00:58:52.916Z,8.30
2019-03-15T01:01:21.682Z,8.40
2019-03-15T01:03:50.450Z,8.30
2019-03-15T01:06:19.312Z,8.30
2019-03-15T01:08:48.083Z,8.30
2019-03-15T01:11:16.837Z,8.30
2019-03-15T01:13:45.633Z,8.20
2019-03-15T01:16:14.391Z,8.20
2019-03-15T01:18:43.227Z,8.20
2019-03-15T01:21:12.335Z,8.10
2019-03-15T01:23:41.431Z,8.10
2019-03-15T01:26:10.190Z,8.10
2019-03-15T01:28:38.974Z,8.00
2019-03-15T01:31:07.744Z,8.00
2019-03-15T01:33:36.892Z,8.00
2019-03-15T01:36:05.692Z,8.00
2019-03-15T01:38:34.465Z,8.00
2019-03-15T01:41:04.278Z,8.00
2019-03-15T01:43:33.192Z,8.10
2019-03-15T01:46:01.957Z,8.10
2019-03-15T01:48:30.735Z,8.10
2019-03-15T01:50:59.556Z,8.20
2019-03-15T01:53:28.391Z,8.30
2019-03-15T01:55:57.156Z,8.30
2019-03-15T01:58:26.026Z,8.50
2019-03-15T02:00:54.789Z,8.60
2019-03-15T02:03:23.552Z,8.60
2019-03-15T02:05:52.423Z,8.70
2019-03-15T02:08:21.187Z,8.70
2019-03-15T02:10:49.959Z,8.70
2019-03-15T02:13:18.871Z,8.70
2019-03-15T02:15:47.671Z,8.70
2019-03-15T02:18:16.770Z,8.80
2019-03-15T02:20:45.657Z,8.80
2019-03-15T02:23:14.440Z,8.80
2019-03-15T02:25:43.638Z,8.80
2019-03-15T02:28:12.436Z,8.80
2019-03-15T02:30:41.223Z,8.70
2019-03-15T02:33:10.085Z,8.70
2019-03-15T02:35:38.867Z,8.60
2019-03-15T02:38:07.658Z,8.60
2019-03-15T02:40:36.500Z,8.60
2019-03-15T02:43:05.293Z,8.70
2019-03-15T02:45:34.072Z,8.70
2019-03-15T02:48:03.257Z,8.70
2019-03-15T02:50:32.144Z,8.80
2019-03-15T02:53:01.235Z,8.80
2019-03-15T02:55:30.005Z,8.80
2019-03-15T02:57:58.827Z,8.80
2019-03-15T03:00:27.643Z,8.80
2019-03-15T03:02:56.427Z,8.80
2019-03-15T03:05:25.293Z,8.90
2019-03-15T03:07:54.406Z,8.90
2019-03-15T03:10:23.259Z,9.00
2019-03-15T03:12:52.479Z,9.00
2019-03-15T03:15:21.254Z,8.90
2019-03-15T03:17:50.100Z,8.90
2019-03-15T03:20:19.457Z,8.80
2019-03-15T03:22:49.888Z,8.80
2019-03-15T03:25:18.672Z,8.80
2019-03-15T03:27:47.554Z,8.80
2019-03-15T03:30:17.274Z,8.70
2019-03-15T03:32:46.381Z,8.70
2019-03-15T03:35:15.247Z,8.70
2019-03-15T03:37:45.168Z,8.70
2019-03-15T03:40:14.404Z,8.60
2019-03-15T03:42:43.212Z,8.60
2019-03-15T03:45:12.061Z,8.60
2019-03-15T03:47:40.902Z,8.60
2019-03-15T03:50:10.936Z,8.60
2019-03-15T03:52:41.830Z,8.50
2019-03-15T03:55:10.520Z,8.40
2019-03-15T03:57:39.320Z,8.40
2019-03-15T04:00:16.794Z,8.30
2019-03-15T04:02:45.599Z,8.30
2019-03-15T04:05:14.440Z,8.20
2019-03-15T04:07:43.571Z,8.30
2019-03-15T04:10:12.435Z,8.20
2019-03-15T04:12:41.214Z,8.20
2019-03-15T04:15:11.575Z,8.20
2019-03-15T04:17:40.424Z,8.20
2019-03-15T04:20:11.492Z,8.20
2019-03-15T04:22:40.256Z,8.20
2019-03-15T04:25:10.738Z,8.20
2019-03-15T04:27:39.509Z,8.20
2019-03-15T04:30:12.700Z,8.10
2019-03-15T04:32:41.581Z,8.20
2019-03-15T04:35:10.693Z,8.20
2019-03-15T04:37:39.458Z,8.20
2019-03-15T04:40:10.476Z,8.20
2019-03-15T04:42:39.314Z,8.20
2019-03-15T04:45:08.713Z,8.20
2019-03-15T04:47:37.500Z,8.20
2019-03-15T04:50:07.098Z,8.10
2019-03-15T04:52:36.224Z,8.20
2019-03-15T04:55:06.059Z,8.20
2019-03-15T04:57:34.821Z,8.20
2019-03-15T05:00:04.639Z,8.10
2019-03-15T05:02:33.493Z,8.10
2019-03-15T05:05:02.265Z,8.10
2019-03-15T05:07:31.115Z,8.10
2019-03-15T05:09:59.971Z,8.10
2019-03-15T05:12:28.746Z,8.10
2019-03-15T05:14:57.516Z,8.10
2019-03-15T05:17:26.322Z,8.10
2019-03-15T05:19:55.134Z,8.10
2019-03-15T05:22:23.887Z,8.10
2019-03-15T05:24:52.765Z,8.10
2019-03-15T05:27:21.534Z,8.20
2019-03-15T05:29:50.305Z,8.20
2019-03-15T05:32:19.097Z,8.20
2019-03-15T05:34:47.860Z,8.20
2019-03-15T05:37:16.701Z,8.20
2019-03-15T05:39:45.572Z,8.30
2019-03-15T05:42:14.442Z,8.30
2019-03-15T05:44:43.209Z,8.30
2019-03-15T05:47:12.012Z,8.30
2019-03-15T05:49:41.171Z,8.40
2019-03-15T05:52:10.002Z,8.50
2019-03-15T05:54:38.806Z,8.50
2019-03-15T05:57:07.567Z,8.60
2019-03-15T05:59:36.317Z,8.70
2019-03-15T06:02:05.413Z,8.80
2019-03-15T06:04:34.287Z,8.80
2019-03-15T06:07:03.113Z,8.90
2019-03-15T06:09:31.912Z,9.00
2019-03-15T06:12:00.693Z,9.20
2019-03-15T06:14:29.514Z,9.30
2019-03-15T06:16:58.309Z,9.40
2019-03-15T06:19:27.086Z,9.50
2019-03-15T06:21:56.137Z,9.50
2019-03-15T06:24:24.977Z,9.70
2019-03-15T06:26:53.823Z,9.80
2019-03-15T06:29:22.691Z,9.80
2019-03-15T06:31:51.527Z,9.90
2019-03-15T06:34:20.281Z,10.00
2019-03-15T06:36:49.065Z,10.00
2019-03-15T06:39:17.870Z,10.10
2019-03-15T06:41:46.709Z,10.10
2019-03-15T06:44:15.473Z,10.10
2019-03-15T06:46:44.258Z,10.20
2019-03-15T06:49:13.009Z,10.20
2019-03-15T06:51:41.768Z,10.30
2019-03-15T06:54:11.683Z,10.40
2019-03-15T06:56:40.897Z,10.40
2019-03-15T06:59:10.039Z,10.50
2019-03-15T07:01:38.841Z,10.50
2019-03-15T07:04:07.616Z,10.50
2019-03-15T07:06:36.413Z,10.60
2019-03-15T07:09:07.389Z,10.60
2019-03-15T07:11:36.438Z,10.70
2019-03-15T07:14:05.284Z,10.70
2019-03-15T07:16:34.084Z,10.70
2019-03-15T07:19:03.223Z,10.80
2019-03-15T07:21:32.408Z,10.90
2019-03-15T07:24:01.202Z,11.00
2019-03-15T07:26:29.972Z,11.00
2019-03-15T07:28:58.831Z,11.00
2019-03-15T07:31:28.089Z,11.00
2019-03-15T07:33:56.878Z,11.00
2019-03-15T07:36:25.875Z,11.00
2019-03-15T07:38:55.108Z,11.10
2019-03-15T07:41:25.430Z,11.10
2019-03-15T07:43:54.688Z,11.10
2019-03-15T07:46:23.511Z,11.20
2019-03-15T07:48:52.279Z,11.20
2019-03-15T07:51:21.110Z,11.20
2019-03-15T07:53:49.917Z,11.10
2019-03-15T07:56:18.766Z,11.20
2019-03-15T07:58:47.543Z,11.20
2019-03-15T08:01:16.627Z,11.20
2019-03-15T08:03:45.414Z,11.30
2019-03-15T08:06:14.245Z,11.40
2019-03-15T08:08:43.177Z,11.40
2019-03-15T08:11:12.004Z,11.40
2019-03-15T08:13:40.768Z,11.40
2019-03-15T08:16:09.599Z,11.40
2019-03-15T08:18:38.430Z,11.50
2019-03-15T08:21:07.782Z,11.50
2019-03-15T08:23:36.661Z,11.50
2019-03-15T08:26:05.491Z,11.50
2019-03-15T08:28:34.335Z,11.50
2019-03-15T08:31:03.197Z,11.50
2019-03-15T08:33:32.017Z,11.50
2019-03-15T08:36:00.798Z,11.50
2019-03-15T08:38:29.596Z,11.60
2019-03-15T08:40:58.380Z,11.60
2019-03-15T08:43:27.234Z,11.50
2019-03-15T08:45:56.139Z,11.50
2019-03-15T08:48:24.976Z,11.50
2019-03-15T08:50:53.818Z,11.60
2019-03-15T08:53:22.614Z,11.60
2019-03-15T08:55:51.391Z,11.60
2019-03-15T08:58:22.081Z,11.60
2019-03-15T09:00:50.659Z,11.60
2019-03-15T09:03:27.721Z,11.60
2019-03-15T09:05:49.930Z,11.60
2019-03-15T09:08:19.101Z,11.70
2019-03-15T09:10:47.948Z,11.70
2019-03-15T09:13:17.076Z,11.80
2019-03-15T09:15:45.948Z,11.70
2019-03-15T09:18:14.713Z,11.80
2019-03-15T09:20:43.492Z,11.80
2019-03-15T09:23:12.377Z,11.80
2019-03-15T09:25:41.193Z,11.80
2019-03-15T09:28:09.958Z,11.90
2019-03-15T09:30:38.763Z,11.90
2019-03-15T09:33:07.605Z,11.90
2019-03-15T09:35:36.381Z,12.00
2019-03-15T09:38:05.302Z,12.00
2019-03-15T09:40:34.069Z,12.00
2019-03-15T09:43:02.868Z,12.10
2019-03-15T09:45:31.763Z,12.10
2019-03-15T09:48:00.594Z,12.20
2019-03-15T09:50:40.216Z,12.10
2019-03-15T09:52:59.931Z,12.10
2019-03-15T09:55:33.217Z,12.20
2019-03-15T09:57:59.473Z,12.10
2019-03-15T10:00:28.308Z,12.10
2019-03-15T10:02:57.173Z,12.20
2019-03-15T10:05:25.984Z,12.30
2019-03-15T10:07:54.855Z,12.30
2019-03-15T10:10:23.638Z,12.20
2019-03-15T10:13:05.246Z,12.20
2019-03-15T10:15:26.152Z,12.20
2019-03-15T10:17:53.390Z,12.30
2019-03-15T10:20:22.160Z,12.40
2019-03-15T10:23:04.844Z,12.30
2019-03-15T10:25:21.505Z,12.30
2019-03-15T10:27:50.279Z,12.30
2019-03-15T10:30:20.331Z,12.30
2019-03-15T10:32:49.433Z,12.40
2019-03-15T10:35:18.314Z,12.40
2019-03-15T10:37:47.107Z,12.40
2019-03-15T10:40:18.477Z,12.50
2019-03-15T10:42:47.319Z,12.50
2019-03-15T10:45:16.183Z,12.40
2019-03-15T10:47:44.994Z,12.40
2019-03-15T10:50:15.936Z,12.50
2019-03-15T10:52:44.768Z,12.50
2019-03-15T10:55:13.606Z,12.50
2019-03-15T10:57:42.392Z,12.50
2019-03-15T11:00:18.388Z,12.50
2019-03-15T11:02:47.153Z,12.60
2019-03-15T11:05:17.625Z,12.60
2019-03-15T11:07:46.902Z,12.60
2019-03-15T11:10:15.746Z,12.60
2019-03-15T11:12:44.510Z,12.60
2019-03-15T11:15:15.115Z,12.60
2019-03-15T11:17:43.970Z,12.70
2019-03-15T11:20:13.195Z,12.70
2019-03-15T11:22:42.081Z,12.70
2019-03-15T11:25:11.998Z,12.70
2019-03-15T11:27:40.807Z,12.70
2019-03-15T11:30:11.799Z,12.70
2019-03-15T11:32:40.574Z,12.70
2019-03-15T11:35:10.405Z,12.80
2019-03-15T11:37:39.242Z,12.80
2019-03-15T11:40:19.431Z,12.80
2019-03-15T11:42:48.616Z,12.90
2019-03-15T11:45:17.396Z,12.90
2019-03-15T11:48:01.930Z,12.90
2019-03-15T11:50:20.652Z,12.90
2019-03-15T11:52:49.568Z,13.00
2019-03-15T11:55:18.343Z,13.00
2019-03-15T11:57:47.222Z,13.10
2019-03-15T12:00:17.510Z,13.20
2019-03-15T12:02:46.284Z,13.20
2019-03-15T12:05:15.074Z,13.30
2019-03-15T12:07:43.915Z,13.40
2019-03-15T12:10:16.292Z,13.40
2019-03-15T12:12:45.426Z,13.40
2019-03-15T12:15:15.805Z,13.30
2019-03-15T12:17:44.853Z,13.30
2019-03-15T12:20:13.736Z,13.30
2019-03-15T12:22:42.532Z,13.30
2019-03-15T12:25:13.020Z,13.30
2019-03-15T12:27:42.177Z,13.30
2019-03-15T12:30:18.257Z,13.30
2019-03-15T12:32:47.127Z,13.30
2019-03-15T12:35:16.652Z,13.30
2019-03-15T12:37:45.422Z,13.20
2019-03-15T12:40:18.147Z,13.20
2019-03-15T12:42:46.978Z,13.20
2019-03-15T12:45:16.026Z,13.10
2019-03-15T12:47:44.878Z,13.10
2019-03-15T12:50:14.996Z,13.30
2019-03-15T12:52:47.548Z,13.30
2019-03-15T12:55:15.392Z,13.40
2019-03-15T12:57:44.252Z,13.40
2019-03-15T13:00:21.233Z,13.40
2019-03-15T13:02:50.095Z,13.30
2019-03-15T13:05:18.946Z,13.30
2019-03-15T13:07:47.907Z,13.30
2019-03-15T13:10:19.596Z,13.30
2019-03-15T13:12:48.390Z,13.20
2019-03-15T13:15:17.384Z,13.20
2019-03-15T13:17:46.268Z,13.20
2019-03-15T13:20:16.440Z,13.20
2019-03-15T13:22:45.673Z,13.30
2019-03-15T13:25:14.505Z,13.30
2019-03-15T13:27:43.355Z,13.30
2019-03-15T13:30:13.309Z,13.40
2019-03-15T13:32:42.139Z,13.40
2019-03-15T13:35:10.952Z,13.40
2019-03-15T13:37:42.438Z,13.40
2019-03-15T13:40:20.101Z,13.50
2019-03-15T13:42:48.973Z,13.50
2019-03-15T13:45:17.822Z,13.60
2019-03-15T13:47:46.677Z,13.60
2019-03-15T13:50:17.652Z,13.60
2019-03-15T13:52:46.515Z,13.60
2019-03-15T13:55:15.284Z,13.60
2019-03-15T13:57:44.487Z,13.50
2019-03-15T14:00:17.469Z,13.50
2019-03-15T14:02:46.257Z,13.50
2019-03-15T14:05:15.054Z,13.50
2019-03-15T14:07:43.842Z,13.40
2019-03-15T14:10:13.826Z,13.40
2019-03-15T14:12:42.639Z,13.40
2019-03-15T14:15:13.618Z,13.40
2019-03-15T14:17:42.460Z,13.40
2019-03-15T14:20:12.267Z,13.40
2019-03-15T14:22:41.179Z,13.30
2019-03-15T14:25:18.268Z,13.40
2019-03-15T14:27:47.103Z,13.30
2019-03-15T14:30:15.960Z,13.30
2019-03-15T14:32:44.839Z,13.20
2019-03-15T14:35:13.947Z,13.20
2019-03-15T14:37:42.795Z,13.20
2019-03-15T14:40:12.275Z,13.20
2019-03-15T14:42:41.155Z,13.20
2019-03-15T14:45:14.172Z,13.20
2019-03-15T14:47:43.266Z,13.20
2019-03-15T14:50:13.491Z,13.10
2019-03-15T14:52:42.348Z,13.20
2019-03-15T14:55:17.435Z,13.10
2019-03-15T14:57:52.529Z,13.00
2019-03-15T15:00:20.788Z,12.90
2019-03-15T15:02:49.677Z,12.90
2019-03-15T15:05:18.523Z,12.90
2019-03-15T15:07:47.287Z,12.90
2019-03-15T15:10:17.996Z,12.80
2019-03-15T15:12:46.865Z,12.80
2019-03-15T15:15:19.707Z,12.70
2019-03-15T15:17:48.507Z,12.70
2019-03-15T15:20:17.384Z,12.70
2019-03-15T15:22:46.231Z,12.70
2019-03-15T15:25:16.524Z,12.70
2019-03-15T15:27:45.378Z,12.60
2019-03-15T15:30:15.460Z,12.60
2019-03-15T15:32:44.294Z,12.50
2019-03-15T15:35:14.075Z,12.50
2019-03-15T15:37:42.906Z,12.50
2019-03-15T15:40:17.399Z,12.40
2019-03-15T15:42:46.593Z,12.40
2019-03-15T15:45:15.363Z,12.40
2019-03-15T15:47:44.503Z,12.40
2019-03-15T15:50:16.500Z,12.30
2019-03-15T15:52:45.275Z,12.30
2019-03-15T15:55:15.517Z,12.30
2019-03-15T15:57:44.546Z,12.30
2019-03-15T16:00:16.582Z,12.20
2019-03-15T16:02:45.404Z,12.20
2019-03-15T16:05:14.240Z,12.20
2019-03-15T16:07:43.076Z,12.10
2019-03-15T16:10:17.740Z,12.10
2019-03-15T16:12:45.834Z,12.20
2019-03-15T16:15:16.981Z,12.10
2019-03-15T16:17:46.100Z,12.10
2019-03-15T16:20:15.029Z,12.10
2019-03-15T16:22:44.239Z,12.10
2019-03-15T16:25:13.967Z,12.10
2019-03-15T16:27:42.821Z,12.20
2019-03-15T16:30:17.703Z,12.20
2019-03-15T16:32:46.512Z,12.20
2019-03-15T16:35:15.374Z,12.30
2019-03-15T16:37:44.220Z,12.30
2019-03-15T16:40:14.187Z,12.30
2019-03-15T16:42:42.953Z,12.30
2019-03-15T16:45:28.967Z,12.30
2019-03-15T16:47:57.817Z,12.30
2019-03-15T16:50:26.688Z,12.30
2019-03-15T16:52:55.551Z,12.30
2019-03-15T16:55:24.386Z,12.30
2019-03-15T16:57:53.611Z,12.30
2019-03-15T17:00:22.496Z,12.30
2019-03-15T17:02:51.280Z,12.30
2019-03-15T17:05:20.490Z,12.20
2019-03-15T17:07:49.562Z,12.20
2019-03-15T17:10:19.459Z,12.20
2019-03-15T17:12:48.223Z,12.20
2019-03-15T17:15:22.923Z,12.20
2019-03-15T17:17:51.771Z,12.20
2019-03-15T17:20:20.549Z,12.20
2019-03-15T17:22:49.444Z,12.20
2019-03-15T17:25:18.343Z,12.20
2019-03-15T17:27:47.503Z,12.10
2019-03-15T17:30:17.318Z,12.20
2019-03-15T17:32:46.152Z,12.10
2019-03-15T17:35:16.473Z,12.10
2019-03-15T17:37:45.268Z,12.10
2019-03-15T17:40:33.472Z,12.20
2019-03-15T17:43:02.371Z,12.20
2019-03-15T17:45:31.154Z,12.20
2019-03-15T17:48:00.004Z,12.20
2019-03-15T17:50:28.804Z,12.20
2019-03-15T17:52:57.690Z,12.20
2019-03-15T17:55:26.496Z,12.10
2019-03-15T17:57:55.400Z,12.10
2019-03-15T18:00:40.644Z,12.10
2019-03-15T18:03:20.793Z,12.00
2019-03-15T18:05:39.930Z,12.00
2019-03-15T18:08:08.707Z,12.10
2019-03-15T18:10:37.502Z,12.10
2019-03-15T18:13:06.570Z,12.10
2019-03-15T18:15:35.413Z,12.10
2019-03-15T18:18:04.321Z,12.10
2019-03-15T18:20:33.131Z,12.20
2019-03-15T18:23:01.897Z,12.20
2019-03-15T18:25:31.004Z,12.20
2019-03-15T18:27:59.772Z,12.20
2019-03-15T18:30:28.567Z,12.20
2019-03-15T18:32:57.391Z,12.30
2019-03-15T18:35:33.620Z,12.30
2019-03-15T18:37:56.704Z,12.30
2019-03-15T18:40:25.521Z,12.30
2019-03-15T18:42:54.301Z,12.40
2019-03-15T18:45:23.097Z,12.30
2019-03-15T18:47:51.900Z,12.30
2019-03-15T18:50:24.020Z,12.30
2019-03-15T18:52:52.860Z,12.30
2019-03-15T18:55:21.656Z,12.40
2019-03-15T18:57:50.437Z,12.30
2019-03-15T19:00:24.103Z,12.30
2019-03-15T19:02:53.210Z,12.30
2019-03-15T19:05:21.993Z,12.40
2019-03-15T19:07:50.852Z,12.40
2019-03-15T19:10:20.105Z,12.40
2019-03-15T19:12:48.943Z,12.40
2019-03-15T19:15:20.273Z,12.40
2019-03-15T19:17:49.070Z,12.50
2019-03-15T19:20:18.217Z,12.50
2019-03-15T19:22:47.067Z,12.50
2019-03-15T19:25:16.004Z,12.50
2019-03-15T19:27:44.845Z,12.50
2019-03-15T19:30:18.470Z,12.50
2019-03-15T19:32:47.305Z,12.50
2019-03-15T19:35:16.093Z,12.50
2019-03-15T19:37:44.941Z,12.50
2019-03-15T19:40:16.025Z,12.50
2019-03-15T19:42:45.720Z,12.50
2019-03-15T19:45:16.092Z,12.40
2019-03-15T19:47:45.255Z,12.40
2019-03-15T19:50:16.399Z,12.30
2019-03-15T19:52:45.157Z,12.30
2019-03-15T19:55:14.872Z,12.30
2019-03-15T19:57:43.642Z,12.30
2019-03-15T20:00:14.363Z,12.30
2019-03-15T20:02:43.227Z,12.30
2019-03-15T20:05:12.004Z,12.30
2019-03-15T20:07:40.916Z,12.30
2019-03-15T20:10:16.099Z,12.20
2019-03-15T20:12:43.265Z,12.20
2019-03-15T20:15:13.557Z,12.20
2019-03-15T20:17:42.381Z,12.20
2019-03-15T20:20:20.509Z,12.20
2019-03-15T20:22:49.308Z,12.20
2019-03-15T20:25:18.454Z,12.20
2019-03-15T20:27:47.234Z,12.20
2019-03-15T20:30:26.565Z,12.20
2019-03-15T20:32:53.653Z,12.30
2019-03-15T20:35:22.769Z,12.30
2019-03-15T20:37:51.574Z,12.20
2019-03-15T20:40:20.442Z,12.20
2019-03-15T20:42:49.291Z,12.30
2019-03-15T20:45:23.602Z,12.30
2019-03-15T20:47:52.441Z,12.30
2019-03-15T20:50:21.225Z,12.30
2019-03-15T20:52:50.045Z,12.30
2019-03-15T20:55:18.819Z,12.30
2019-03-15T20:57:47.679Z,12.20
2019-03-15T21:00:19.743Z,11.90
2019-03-15T21:02:48.585Z,11.60
2019-03-15T21:05:17.428Z,11.20
2019-03-15T21:07:46.671Z,11.10
2019-03-15T21:10:18.937Z,11.00
2019-03-15T21:12:47.724Z,11.00
2019-03-15T21:15:17.022Z,10.90
2019-03-15T21:17:45.803Z,10.80
2019-03-15T21:20:22.166Z,10.80
2019-03-15T21:22:49.566Z,10.70
2019-03-15T21:25:18.459Z,10.70
2019-03-15T21:27:54.016Z,10.70
2019-03-15T21:30:19.706Z,10.70
2019-03-15T21:32:48.577Z,10.60
2019-03-15T21:35:17.429Z,10.60
2019-03-15T21:37:46.306Z,10.50
2019-03-15T21:40:16.522Z,10.50
2019-03-15T21:42:45.370Z,10.50
2019-03-15T21:45:14.219Z,10.40
2019-03-15T21:47:43.058Z,10.40
2019-03-15T21:50:19.662Z,10.30
2019-03-15T21:52:48.501Z,10.30
2019-03-15T21:55:17.307Z,10.20
2019-03-15T21:57:46.181Z,10.20
2019-03-15T22:00:19.255Z,10.30
2019-03-15T22:02:48.078Z,10.20
2019-03-15T22:05:16.875Z,10.30
2019-03-15T22:07:45.659Z,10.20
2019-03-15T22:10:16.530Z,10.20
2019-03-15T22:12:45.396Z,10.20
2019-03-15T22:15:14.188Z,10.20
2019-03-15T22:17:43.007Z,10.30
2019-03-15T22:20:15.503Z,10.30
2019-03-15T22:22:44.291Z,10.30
2019-03-15T22:25:13.462Z,10.30
2019-03-15T22:27:42.333Z,10.30
2019-03-15T22:30:14.440Z,10.30
2019-03-15T22:32:43.656Z,10.30
2019-03-15T22:35:13.784Z,10.30
2019-03-15T22:37:42.836Z,10.30
2019-03-15T22:40:14.899Z,10.40
2019-03-15T22:42:43.761Z,10.40
2019-03-15T22:45:13.773Z,10.40
2019-03-15T22:47:42.545Z,10.30
2019-03-15T22:50:12.360Z,10.40
2019-03-15T22:52:41.199Z,10.30
2019-03-15T22:55:11.683Z,10.40
2019-03-15T22:57:40.479Z,10.40
2019-03-15T23:00:16.368Z,10.30
2019-03-15T23:02:45.266Z,10.30
2019-03-15T23:05:15.454Z,10.30
2019-03-15T23:07:44.253Z,10.30
2019-03-15T23:10:13.104Z,10.30
2019-03-15T23:12:41.968Z,10.30
2019-03-15T23:15:12.465Z,10.30
2019-03-15T23:17:41.256Z,10.30
2019-03-15T23:20:13.859Z,10.30
2019-03-15T23:22:42.693Z,10.30
2019-03-15T23:25:11.560Z,10.30
2019-03-15T23:27:40.433Z,10.30
2019-03-15T23:30:15.400Z,10.20
2019-03-15T23:32:44.168Z,10.20
2019-03-15T23:35:12.978Z,10.20
2019-03-15T23:37:41.820Z,10.20
2019-03-15T23:40:12.990Z,10.20
2019-03-15T23:42:41.878Z,10.10
2019-03-15T23:45:11.086Z,10.10
2019-03-15T23:47:39.928Z,10.10
2019-03-15T23:50:14.118Z,10.10
2019-03-15T23:52:42.930Z,10.10
2019-03-15T23:55:11.762Z,10.00
2019-03-15T23:57:40.568Z,10.00
